Time;durP1;ratioP1;P1;durP2;ratioP2;P2;SDS_P1;SDS_P2;PMS_P1;PMS_P2;Temp;Humidity;BMP_temperature;BMP_pressure;BME280_temperature;BME280_humidity;BME280_pressure;Samples;Min_cycle;Max_cycle;Signal;HPM_P1;HPM_P2
2023/12/30 00:00:22;;;;;;;6.15;3.60;;;-0.60;75.30;;;;;;5046044;28;20071;-84
2023/12/30 00:02:49;;;;;;;4.85;3.03;;;-0.60;75.40;;;;;;5068698;28;20056;-84
2023/12/30 00:05:17;;;;;;;6.63;4.13;;;-0.70;75.00;;;;;;5032944;28;20424;-83
2023/12/30 00:07:47;;;;;;;4.65;3.55;;;-0.60;75.60;;;;;;5067529;28;20064;-87
2023/12/30 00:10:16;;;;;;;5.78;3.70;;;-0.60;75.60;;;;;;5050721;28;20121;-87
2023/12/30 00:12:46;;;;;;;6.03;4.00;;;-0.60;75.30;;;;;;5056355;28;20071;-86
2023/12/30 00:15:14;;;;;;;6.88;3.53;;;-0.60;75.30;;;;;;5031825;28;20565;-86
2023/12/30 00:17:43;;;;;;;6.43;3.40;;;-0.60;75.30;;;;;;5049007;28;20049;-87
2023/12/30 00:20:11;;;;;;;7.72;3.63;;;-0.70;75.20;;;;;;5047306;28;20102;-87
2023/12/30 00:22:41;;;;;;;7.18;3.58;;;-0.70;75.30;;;;;;5048806;28;20059;-86
2023/12/30 00:25:13;;;;;;;7.57;3.92;;;-0.70;75.30;;;;;;5051017;28;20048;-87
2023/12/30 00:27:44;;;;;;;6.53;3.22;;;-0.60;75.30;;;;;;5055447;28;20044;-86
2023/12/30 00:30:14;;;;;;;5.65;3.67;;;-0.70;75.30;;;;;;5063022;28;20103;-86
2023/12/30 00:32:41;;;;;;;6.65;3.90;;;-0.60;75.40;;;;;;5066302;28;20048;-87
2023/12/30 00:35:54;;;;;;;;;;;;;;;;;;;;;
2023/12/30 00:38:54;;;;;;;5.63;3.65;;;-0.70;75.20;;;;;;4956921;28;20054;-87
2023/12/30 00:41:47;;;;;;;7.95;3.47;;;-0.70;75.40;;;;;;4965509;28;20054;-87
2023/12/30 00:44:21;;;;;;;7.90;3.07;;;-0.70;75.20;;;;;;5009331;28;20147;-85
2023/12/30 00:46:48;;;;;;;8.40;3.60;;;-0.70;75.30;;;;;;5030301;28;20060;-87
2023/12/30 00:49:18;;;;;;;8.35;4.00;;;-0.60;75.50;;;;;;5046760;28;20048;-87
2023/12/30 00:51:47;;;;;;;16.15;7.30;;;-0.60;75.20;;;;;;5047062;28;20503;-86
2023/12/30 00:54:15;;;;;;;7.50;4.45;;;-0.60;75.20;;;;;;5048332;28;20092;-87
2023/12/30 00:56:44;;;;;;;6.10;3.65;;;-0.60;75.00;;;;;;5043454;28;20056;-86
2023/12/30 00:59:21;;;;;;;7.28;3.95;;;-0.60;75.10;;;;;;5052308;28;20055;-86
2023/12/30 01:01:51;;;;;;;7.53;3.75;;;-0.60;75.10;;;;;;5050627;28;20048;-86
2023/12/30 01:04:18;;;;;;;8.98;4.45;;;-0.60;74.90;;;;;;5031260;28;20135;-86
2023/12/30 01:06:46;;;;;;;7.68;3.42;;;-0.70;74.80;;;;;;5064557;28;20854;-86
2023/12/30 01:09:15;;;;;;;7.63;3.67;;;-0.70;75.00;;;;;;5035670;28;20483;-84
2023/12/30 01:11:46;;;;;;;7.38;3.55;;;-0.70;74.80;;;;;;5051620;28;20065;-84
2023/12/30 01:14:15;;;;;;;7.68;3.95;;;-0.70;75.00;;;;;;5043926;28;20398;-85
2023/12/30 01:16:49;;;;;;;12.88;3.95;;;-0.70;75.30;;;;;;5035571;28;20048;-85
2023/12/30 01:19:19;;;;;;;5.88;3.85;;;-0.70;75.10;;;;;;5069332;28;20061;-85
2023/12/30 01:21:51;;;;;;;6.18;3.90;;;-0.70;75.00;;;;;;5050314;28;20102;-84
2023/12/30 01:24:19;;;;;;;7.20;3.47;;;-0.70;75.20;;;;;;5084997;28;20048;-84
2023/12/30 01:26:49;;;;;;;6.63;3.67;;;-0.70;74.90;;;;;;5057415;28;20083;-86
2023/12/30 01:29:50;;;;;;;;;;;;;;;;;;;;;
2023/12/30 01:32:58;;;;;;;7.75;4.13;;;-0.70;75.10;;;;;;4909151;29;20108;-85
2023/12/30 01:35:28;;;;;;;6.15;4.22;;;-0.60;74.90;;;;;;4992712;28;20133;-85
2023/12/30 01:37:55;;;;;;;4.95;3.50;;;-0.60;74.50;;;;;;5050102;28;20465;-86
2023/12/30 01:40:25;;;;;;;5.40;3.40;;;-0.60;74.70;;;;;;5045590;28;20094;-84
2023/12/30 01:43:04;;;;;;;;;;;;;;;;;;;;;
2023/12/30 01:46:10;;;;;;;6.25;3.58;;;-0.80;74.20;;;;;;5045789;28;20068;-86
2023/12/30 01:48:40;;;;;;;5.50;3.53;;;-0.90;74.60;;;;;;5051704;28;20685;-86
2023/12/30 01:52:08;;;;;;;;;;;;;;;;;;;;;
2023/12/30 01:56:00;;;;;;;;;;;;;;;;;;;;;
2023/12/30 02:05:22;;;;;;;8.65;3.53;;;-0.80;74.60;;;;;;4889407;29;20067;-84
2023/12/30 02:07:52;;;;;;;6.20;3.22;;;-0.80;74.40;;;;;;4896668;29;20485;-84
2023/12/30 02:10:21;;;;;;;6.90;3.00;;;-0.70;74.50;;;;;;4929644;28;20095;-85
2023/12/30 02:12:49;;;;;;;8.07;3.22;;;-0.70;74.10;;;;;;5049530;28;20055;-84
2023/12/30 02:15:17;;;;;;;6.07;3.30;;;-0.80;73.90;;;;;;5050730;28;20056;-84
2023/12/30 02:17:47;;;;;;;6.00;3.22;;;-0.70;73.90;;;;;;5056933;28;20067;-84
2023/12/30 02:20:16;;;;;;;6.13;3.22;;;-0.80;73.90;;;;;;5050391;28;20056;-84
2023/12/30 02:22:46;;;;;;;7.63;3.90;;;-0.80;73.90;;;;;;5079732;28;20044;-84
2023/12/30 02:25:19;;;;;;;4.65;3.30;;;-0.80;74.20;;;;;;5032344;28;20083;-84
2023/12/30 02:27:47;;;;;;;4.65;2.80;;;-0.90;74.00;;;;;;5038437;28;20160;-83
2023/12/30 02:30:16;;;;;;;6.15;3.20;;;-0.90;74.10;;;;;;5047177;28;20486;-83
2023/12/30 02:32:47;;;;;;;10.77;3.17;;;-0.90;74.10;;;;;;5051699;28;20059;-84
2023/12/30 02:35:14;;;;;;;7.35;2.67;;;-0.90;74.30;;;;;;5020355;28;20053;-85
2023/12/30 02:37:45;;;;;;;10.43;3.58;;;-0.90;74.00;;;;;;4999394;28;20470;-85
2023/12/30 02:40:13;;;;;;;7.15;4.15;;;-0.90;74.30;;;;;;4774143;29;20093;-84
2023/12/30 02:42:41;;;;;;;6.95;2.97;;;-0.90;74.40;;;;;;4863519;29;20053;-85
2023/12/30 02:45:10;;;;;;;5.40;2.78;;;-0.90;74.30;;;;;;4750388;29;20062;-84
2023/12/30 02:47:38;;;;;;;5.80;3.50;;;-1.00;74.20;;;;;;4651730;30;20070;-85
2023/12/30 02:50:07;;;;;;;8.93;3.15;;;-1.00;74.30;;;;;;4602721;30;20067;-84
2023/12/30 02:52:37;;;;;;;5.30;3.03;;;-0.90;74.70;;;;;;4662663;30;20158;-84
2023/12/30 02:55:07;;;;;;;4.20;2.60;;;-0.90;74.40;;;;;;4645060;30;20066;-85
2023/12/30 02:57:35;;;;;;;5.13;2.20;;;-0.90;74.40;;;;;;4633545;30;20153;-86
2023/12/30 03:00:03;;;;;;;5.45;3.28;;;-0.90;74.30;;;;;;4659710;30;20066;-85
2023/12/30 03:02:31;;;;;;;5.13;3.22;;;-0.90;74.20;;;;;;4640924;30;20531;-83
2023/12/30 03:05:01;;;;;;;3.55;2.22;;;-0.90;74.20;;;;;;4611440;30;20075;-84
2023/12/30 03:07:29;;;;;;;6.60;3.13;;;-0.90;74.10;;;;;;4622010;30;20063;-85
2023/12/30 03:09:56;;;;;;;3.83;2.85;;;-1.00;73.90;;;;;;4678946;30;20061;-84
2023/12/30 03:12:25;;;;;;;4.00;2.88;;;-1.00;74.30;;;;;;4727636;29;20594;-85
2023/12/30 03:14:53;;;;;;;4.35;2.70;;;-0.90;74.40;;;;;;4757208;29;20561;-86
2023/12/30 03:20:10;;;;;;;2.72;2.28;;;-1.00;74.40;;;;;;4682926;30;20108;-84
2023/12/30 03:25:22;;;;;;;4.50;3.00;;;-1.00;74.20;;;;;;5020130;27;2763363;-87
2023/12/30 03:27:50;;;;;;;6.20;2.47;;;-1.00;74.30;;;;;;5103968;28;20500;-87
2023/12/30 03:30:34;;;;;;;3.10;2.00;;;-1.10;74.40;;;;;;5082231;28;20136;-87
2023/12/30 03:33:04;;;;;;;7.53;2.22;;;-1.10;74.60;;;;;;5070213;28;20049;-87
2023/12/30 03:35:33;;;;;;;4.22;2.50;;;-1.10;74.60;;;;;;5084485;28;20052;-86
2023/12/30 03:38:00;;;;;;;6.28;2.15;;;-1.20;74.50;;;;;;5071924;28;20050;-85
2023/12/30 03:40:29;;;;;;;4.47;2.55;;;-1.10;74.70;;;;;;5074606;28;20044;-85
2023/12/30 03:42:56;;;;;;;5.50;2.38;;;-1.20;74.60;;;;;;5065297;28;20040;-85
2023/12/30 03:45:24;;;;;;;6.18;2.53;;;-1.10;74.90;;;;;;5082568;28;20040;-84
2023/12/30 03:47:52;;;;;;;2.67;2.00;;;-1.00;74.80;;;;;;5080510;28;20072;-85
2023/12/30 03:50:21;;;;;;;4.25;2.58;;;-1.00;74.90;;;;;;5076888;28;20052;-85
2023/12/30 03:52:51;;;;;;;7.40;3.35;;;-0.90;74.80;;;;;;5070944;28;20053;-85
2023/12/30 03:55:19;;;;;;;4.72;2.50;;;-1.00;74.40;;;;;;5071244;28;20040;-84
2023/12/30 03:57:50;;;;;;;5.88;2.50;;;-1.00;74.40;;;;;;5075753;28;20044;-84
2023/12/30 04:00:45;;;;;;;;;;;;;;;;;;;;;
2023/12/30 04:04:00;;;;;;;6.82;2.60;;;-0.90;74.80;;;;;;5038960;28;20061;-85
2023/12/30 04:06:50;;;;;;;4.60;2.28;;;-1.00;74.80;;;;;;5032868;28;20046;-87
2023/12/30 04:09:27;;;;;;;4.60;3.00;;;-1.00;75.00;;;;;;5034434;28;20414;-87
2023/12/30 04:12:18;;;;;;;3.13;2.17;;;-1.10;75.10;;;;;;4968355;28;20456;-85
2023/12/30 04:14:49;;;;;;;5.22;2.53;;;-1.10;75.40;;;;;;4966824;28;20046;-85
2023/12/30 04:17:17;;;;;;;5.85;2.72;;;-1.10;75.30;;;;;;4979815;28;20058;-85
2023/12/30 04:19:48;;;;;;;5.07;3.15;;;-1.00;75.50;;;;;;5038465;28;20459;-86
2023/12/30 04:22:18;;;;;;;6.35;2.65;;;-1.00;75.50;;;;;;5073436;28;20045;-86
2023/12/30 04:24:49;;;;;;;3.17;2.33;;;-1.00;75.00;;;;;;5054132;28;20090;-85
2023/12/30 04:27:19;;;;;;;8.27;4.00;;;-1.00;74.90;;;;;;5086616;28;20063;-87
2023/12/30 04:29:52;;;;;;;4.35;2.33;;;-1.00;75.00;;;;;;5068239;28;20040;-86
2023/12/30 04:32:20;;;;;;;7.00;2.58;;;-1.00;74.90;;;;;;5065389;28;20062;-84
2023/12/30 04:34:48;;;;;;;6.43;3.10;;;-1.00;75.20;;;;;;5029344;28;20125;-86
2023/12/30 04:37:16;;;;;;;3.85;2.47;;;-1.00;74.90;;;;;;4850565;29;20165;-86
2023/12/30 04:39:43;;;;;;;4.50;2.42;;;-1.00;74.90;;;;;;4841098;29;20493;-87
2023/12/30 04:42:12;;;;;;;6.18;2.85;;;-0.90;74.90;;;;;;4824391;29;20447;-85
2023/12/30 04:44:40;;;;;;;4.80;1.80;;;-0.90;74.80;;;;;;4842955;29;20052;-86
2023/12/30 04:47:14;;;;;;;3.83;2.28;;;-1.00;74.70;;;;;;4873910;29;20057;-86
2023/12/30 04:49:42;;;;;;;4.22;2.13;;;-0.90;74.90;;;;;;4902607;29;20048;-85
2023/12/30 04:52:10;;;;;;;12.93;7.05;;;-1.00;74.70;;;;;;4889823;29;20150;-85
2023/12/30 04:54:42;;;;;;;8.57;3.00;;;-1.00;74.80;;;;;;4878284;29;20078;-86
2023/12/30 04:57:21;;;;;;;5.05;3.03;;;-1.00;75.10;;;;;;4872028;29;20083;-85
2023/12/30 04:59:48;;;;;;;9.60;3.08;;;-1.00;75.00;;;;;;4901252;28;20049;-86
2023/12/30 05:02:17;;;;;;;3.42;2.55;;;-1.00;75.00;;;;;;4818006;29;20068;-85
2023/12/30 05:04:45;;;;;;;3.78;2.70;;;-1.10;75.00;;;;;;4851999;29;20115;-85
2023/12/30 05:07:12;;;;;;;3.65;2.35;;;-1.10;74.80;;;;;;4858621;29;20061;-85
2023/12/30 05:09:40;;;;;;;3.92;2.55;;;-1.10;75.20;;;;;;4878354;29;20056;-85
2023/12/30 05:12:09;;;;;;;4.07;2.42;;;-1.10;75.40;;;;;;4890549;29;20143;-85
2023/12/30 05:14:43;;;;;;;4.60;3.00;;;-1.10;75.20;;;;;;4899328;29;20043;-83
2023/12/30 05:17:13;;;;;;;4.60;2.20;;;-1.00;75.20;;;;;;4940817;28;20158;-86
2023/12/30 05:19:44;;;;;;;5.55;2.92;;;-1.00;74.90;;;;;;4904859;28;20070;-84
2023/12/30 05:22:12;;;;;;;6.68;2.75;;;-1.00;75.00;;;;;;4969845;28;20177;-85
2023/12/30 05:24:59;;;;;;;;;;;;;;;;;;;;;
2023/12/30 05:27:58;;;;;;;4.28;2.03;;;-0.90;74.90;;;;;;4879771;28;20148;-84
2023/12/30 05:30:25;;;;;;;5.90;2.90;;;-1.10;74.60;;;;;;5006390;28;20057;-84
2023/12/30 05:33:00;;;;;;;5.32;2.72;;;-1.00;75.10;;;;;;5009644;28;20066;-84
2023/12/30 05:35:30;;;;;;;4.90;2.28;;;-1.00;75.20;;;;;;4960626;28;20106;-84
2023/12/30 05:37:57;;;;;;;6.15;2.40;;;-1.00;75.30;;;;;;4944918;28;20051;-87
2023/12/30 05:40:27;;;;;;;4.07;2.35;;;-1.00;75.40;;;;;;4940878;28;20051;-84
2023/12/30 05:42:55;;;;;;;6.70;2.30;;;-1.00;75.30;;;;;;4916794;29;20654;-84
2023/12/30 05:45:24;;;;;;;6.22;2.40;;;-1.00;75.40;;;;;;4919383;28;20059;-85
2023/12/30 05:58:14;;;;;;;;;;;;;;;;;;;;;
2023/12/30 06:01:57;;;;;;;;;;;;;;;;;;;;;
2023/12/30 06:05:05;;;;;;;;;;;;;;;;;;;;;
2023/12/30 06:08:27;;;;;;;6.25;2.22;;;-1.10;75.50;;;;;;4956949;28;20133;-85
2023/12/30 06:11:20;;;;;;;5.63;2.17;;;-1.00;75.40;;;;;;4977809;28;20082;-84
2023/12/30 06:14:02;;;;;;;3.47;2.65;;;-1.00;75.30;;;;;;4970362;28;20054;-85
2023/12/30 06:16:59;;;;;;;;;;;;;;;;;;;;;
2023/12/30 06:20:07;;;;;;;4.00;2.35;;;-1.10;75.20;;;;;;4871961;29;20153;-85
2023/12/30 06:23:12;;;;;;;7.35;3.17;;;-1.10;75.30;;;;;;4961265;28;20047;-84
2023/12/30 06:25:43;;;;;;;3.78;2.40;;;-1.10;75.30;;;;;;4946548;28;20174;-86
2023/12/30 06:28:13;;;;;;;6.65;2.30;;;-1.10;75.20;;;;;;4985536;28;20924;-85
2023/12/30 06:30:52;;;;;;;4.45;2.47;;;-1.00;74.90;;;;;;5003003;28;20072;-86
2023/12/30 06:33:28;;;;;;;5.55;2.40;;;-1.00;75.10;;;;;;5010591;28;20052;-84
2023/12/30 06:35:58;;;;;;;6.15;2.50;;;-1.00;74.80;;;;;;5022037;28;20457;-84
2023/12/30 06:38:27;;;;;;;3.83;2.17;;;-1.00;74.70;;;;;;5061970;28;20072;-85
2023/12/30 06:41:07;;;;;;;4.20;2.40;;;-1.00;74.70;;;;;;5071857;28;20497;-86
2023/12/30 06:43:42;;;;;;;8.32;2.75;;;-1.00;74.60;;;;;;5073261;28;20040;-85
2023/12/30 06:46:11;;;;;;;5.00;2.35;;;-1.00;74.60;;;;;;5068082;28;20543;-86
2023/12/30 06:48:42;;;;;;;7.88;2.15;;;-1.00;74.60;;;;;;5050248;28;20061;-85
2023/12/30 06:51:19;;;;;;;8.40;2.47;;;-1.00;74.50;;;;;;5066424;28;20083;-85
2023/12/30 06:53:48;;;;;;;3.75;2.20;;;-1.00;74.40;;;;;;5067093;28;20583;-84
2023/12/30 06:56:19;;;;;;;8.45;2.80;;;-1.10;74.30;;;;;;5073310;28;20557;-85
2023/12/30 06:58:46;;;;;;;3.50;2.40;;;-1.10;74.30;;;;;;5076803;28;20133;-87
2023/12/30 07:01:50;;;;;;;;;;;;;;;;;;;;;
2023/12/30 07:04:57;;;;;;;5.43;2.17;;;-1.10;74.30;;;;;;4961517;28;20054;-87
2023/12/30 07:07:25;;;;;;;6.43;2.03;;;-1.10;74.20;;;;;;5008450;28;20043;-86
2023/12/30 07:10:05;;;;;;;;;;;;;;;;;;;;;
2023/12/30 07:13:10;;;;;;;4.72;2.22;;;-1.20;74.10;;;;;;4719405;29;20083;-85
2023/12/30 07:16:18;;;;;;;;;;;;;;;;;;;;;
2023/12/30 08:30:59;;;;;;;;;;;;;;;;;;;;;
2023/12/30 10:32:10;;;;;;;;;;;;;;;;;;;;;
2023/12/30 10:56:17;;;;;;;;;;;;;;;;;;;;;
2023/12/30 10:59:28;;;;;;;12.63;7.00;;;-0.80;71.40;;;;;;4961880;28;20046;-84
2023/12/30 11:10:06;;;;;;;;;;;;;;;;;;;;;
2023/12/30 11:32:01;;;;;;;16.15;7.45;;;-1.20;71.90;;;;;;4995456;28;20045;-83
2023/12/30 11:34:59;;;;;;;15.65;6.93;;;-1.20;71.40;;;;;;4987480;28;20065;-82
2023/12/30 11:38:30;;;;;;;;;;;;;;;;;;;;;
2023/12/30 11:41:57;;;;;;;;;;;;;;;;;;;;;
2023/12/30 11:45:16;;;;;;;;;;;;;;;;;;;;;
2023/12/30 11:52:10;;;;;;;15.38;6.22;;;-1.20;71.00;;;;;;4800896;29;20046;-84
2023/12/30 11:54:39;;;;;;;38.50;8.05;;;-1.10;71.00;;;;;;4883757;29;20193;-83
2023/12/30 11:57:08;;;;;;;14.18;6.03;;;-1.10;71.10;;;;;;4883308;28;20059;-82
2023/12/30 11:59:35;;;;;;;13.98;6.78;;;-1.10;70.80;;;;;;4946260;28;20129;-83
2023/12/30 12:02:11;;;;;;;14.57;5.38;;;-1.10;70.80;;;;;;4958005;28;20058;-82
2023/12/30 12:04:39;;;;;;;13.68;6.10;;;-1.20;70.70;;;;;;4972172;28;20077;-83
2023/12/30 12:07:10;;;;;;;13.60;6.05;;;-1.20;70.80;;;;;;4968705;28;20063;-80
2023/12/30 12:09:40;;;;;;;20.27;7.70;;;-1.30;71.00;;;;;;4968588;28;20104;-78
2023/12/30 12:12:09;;;;;;;10.85;6.15;;;-1.40;71.20;;;;;;4989403;28;20101;-84
2023/12/30 12:14:36;;;;;;;15.00;6.13;;;-1.40;71.20;;;;;;4982461;28;20042;-78
2023/12/30 12:17:06;;;;;;;18.10;5.80;;;-1.60;71.00;;;;;;4993731;28;20050;-81
2023/12/30 12:19:36;;;;;;;12.43;4.55;;;-1.70;71.20;;;;;;4985589;28;20146;-79
2023/12/30 12:22:05;;;;;;;8.55;4.45;;;-1.80;71.70;;;;;;4975397;28;20082;-79
2023/12/30 12:24:34;;;;;;;10.13;4.63;;;-1.90;71.60;;;;;;4955624;28;20050;-80
2023/12/30 12:27:05;;;;;;;11.60;4.53;;;-1.90;71.90;;;;;;4970067;28;20054;-81
2023/12/30 12:29:33;;;;;;;12.40;4.88;;;-2.00;72.20;;;;;;4978871;28;20169;-81
2023/12/30 12:32:06;;;;;;;7.78;4.25;;;-2.00;72.60;;;;;;4990027;28;20057;-84
2023/12/30 12:34:34;;;;;;;8.52;4.25;;;-2.00;72.60;;;;;;4983526;28;20049;-84
2023/12/30 12:37:02;;;;;;;6.82;3.78;;;-1.90;72.70;;;;;;4972742;28;20057;-85
2023/12/30 12:39:30;;;;;;;8.32;4.63;;;-1.90;72.60;;;;;;4989212;28;20046;-84
2023/12/30 12:41:59;;;;;;;10.70;3.78;;;-2.00;72.20;;;;;;5000298;28;20057;-83
2023/12/30 12:44:26;;;;;;;8.65;3.72;;;-2.00;72.40;;;;;;4981765;28;20519;-83
2023/12/30 12:47:09;;;;;;;;;;;;;;;;;;;;;
2023/12/30 12:49:53;;;;;;;7.32;3.42;;;-2.00;72.40;;;;;;4983956;28;20058;-82
2023/12/30 12:52:23;;;;;;;6.10;3.25;;;-2.00;72.40;;;;;;4964258;28;20064;-83
2023/12/30 12:55:02;;;;;;;6.47;3.60;;;-2.00;72.60;;;;;;4970873;28;20418;-84
2023/12/30 12:57:36;;;;;;;5.60;3.00;;;-2.00;72.60;;;;;;4994969;28;20505;-85
2023/12/30 13:00:08;;;;;;;8.10;3.03;;;-2.00;73.50;;;;;;4986669;28;20475;-84
2023/12/30 13:02:39;;;;;;;4.80;3.05;;;-2.00;72.70;;;;;;4979883;28;20054;-84
2023/12/30 13:05:09;;;;;;;5.53;3.08;;;-2.10;72.60;;;;;;4980865;28;20051;-83
2023/12/30 13:07:38;;;;;;;6.35;3.08;;;-2.00;73.00;;;;;;4975562;28;20054;-83
2023/12/30 13:10:34;;;;;;;6.30;2.63;;;-2.10;72.50;;;;;;4968120;28;20799;-83
